Time;durP1;ratioP1;P1;durP2;ratioP2;P2;SDS_P1;SDS_P2;PMS_P1;PMS_P2;Temp;Humidity;BMP_temperature;BMP_pressure;BME280_temperature;BME280_humidity;BME280_pressure;Samples;Min_cycle;Max_cycle;Signal;HPM_P1;HPM_P2
2023/06/28 00:01:43;;;;;;;8.85;3.72;;;16.20;99.90;;;;;;5098728;28;20413;-64
2023/06/28 00:04:09;;;;;;;7.18;3.95;;;16.10;99.90;;;;;;5094156;28;20398;-67
2023/06/28 00:06:34;;;;;;;8.80;3.90;;;16.10;99.90;;;;;;5103172;28;20403;-67
2023/06/28 00:09:00;;;;;;;11.37;3.43;;;16.10;99.90;;;;;;5084814;28;20439;-66
2023/06/28 00:11:27;;;;;;;7.47;3.90;;;16.10;99.90;;;;;;5094779;22;20426;-78
2023/06/28 00:13:53;;;;;;;8.50;3.63;;;16.30;99.90;;;;;;5029378;28;20425;-78
2023/06/28 00:16:19;;;;;;;9.53;4.20;;;16.00;99.90;;;;;;5034638;28;20433;-78
2023/06/28 00:18:45;;;;;;;10.10;3.90;;;16.00;99.90;;;;;;5036394;28;20417;-78
2023/06/28 00:21:14;;;;;;;7.97;3.58;;;16.00;99.90;;;;;;5045241;28;20929;-78
2023/06/28 00:23:40;;;;;;;8.77;3.75;;;16.00;99.90;;;;;;5013751;28;20419;-78
2023/06/28 00:26:06;;;;;;;10.37;3.83;;;16.00;99.90;;;;;;5018367;28;20842;-78
2023/06/28 00:28:32;;;;;;;8.90;3.70;;;16.00;99.90;;;;;;5017688;28;20489;-78
2023/06/28 00:30:57;;;;;;;9.03;3.70;;;15.90;99.90;;;;;;5017819;28;20443;-78
2023/06/28 00:33:23;;;;;;;8.73;3.73;;;15.90;99.90;;;;;;5012429;28;20914;-78
2023/06/28 00:35:49;;;;;;;8.52;4.07;;;15.90;99.90;;;;;;5030897;28;20431;-78
2023/06/28 00:38:14;;;;;;;7.13;3.80;;;15.90;99.90;;;;;;5029957;28;20467;-78
2023/06/28 00:40:40;;;;;;;7.75;3.90;;;15.90;99.90;;;;;;5010037;28;20984;-78
2023/06/28 00:43:06;;;;;;;9.27;4.18;;;15.90;99.90;;;;;;5008523;28;20403;-78
2023/06/28 00:45:31;;;;;;;8.53;3.97;;;15.90;99.90;;;;;;5027640;28;20462;-78
2023/06/28 00:47:57;;;;;;;9.00;4.23;;;15.90;99.90;;;;;;5032461;28;20419;-78
2023/06/28 00:50:24;;;;;;;10.15;4.57;;;15.90;99.90;;;;;;5012948;28;20407;-79
2023/06/28 00:52:50;;;;;;;8.13;3.83;;;15.90;99.90;;;;;;4989664;28;20411;-78
2023/06/28 00:55:16;;;;;;;8.68;4.05;;;15.90;99.90;;;;;;5011210;28;20466;-78
2023/06/28 00:57:42;;;;;;;9.07;4.28;;;15.90;99.90;;;;;;5013025;28;20435;-78
2023/06/28 01:00:12;;;;;;;9.20;4.05;;;16.20;99.90;;;;;;5036783;28;20427;-78
2023/06/28 01:02:41;;;;;;;10.77;4.03;;;15.90;99.90;;;;;;5020420;28;20419;-78
2023/06/28 01:05:09;;;;;;;11.03;4.20;;;15.90;99.90;;;;;;5010952;28;20946;-78
2023/06/28 01:07:37;;;;;;;9.27;4.13;;;15.90;99.90;;;;;;5016194;28;20476;-78
2023/06/28 01:10:04;;;;;;;8.20;4.15;;;15.80;99.90;;;;;;5012147;28;20460;-78
2023/06/28 01:12:30;;;;;;;11.05;4.13;;;15.80;99.90;;;;;;5016179;28;20457;-78
2023/06/28 01:14:55;;;;;;;8.00;4.20;;;15.80;99.90;;;;;;5013176;28;20435;-78
2023/06/28 01:17:21;;;;;;;10.05;4.20;;;15.80;99.90;;;;;;5031727;28;20410;-78
2023/06/28 01:19:48;;;;;;;8.57;4.32;;;15.80;99.90;;;;;;5019918;28;20432;-78
2023/06/28 01:22:14;;;;;;;10.73;4.20;;;15.70;99.90;;;;;;4999204;28;20496;-78
2023/06/28 01:24:41;;;;;;;7.70;4.18;;;15.70;99.90;;;;;;5010427;28;20458;-78
2023/06/28 01:27:10;;;;;;;8.15;3.95;;;15.70;99.90;;;;;;5038601;28;20449;-78
2023/06/28 01:29:36;;;;;;;8.27;4.25;;;15.60;99.90;;;;;;5035959;28;20921;-78
2023/06/28 01:32:04;;;;;;;7.70;4.13;;;15.60;99.90;;;;;;5018814;28;20415;-78
2023/06/28 01:34:29;;;;;;;7.78;4.10;;;15.60;99.90;;;;;;5023400;28;20399;-78
2023/06/28 01:36:59;;;;;;;8.85;4.65;;;15.60;99.90;;;;;;5011372;28;21140;-78
2023/06/28 01:39:25;;;;;;;9.77;4.70;;;15.60;99.90;;;;;;5020492;28;20405;-78
2023/06/28 01:41:53;;;;;;;9.30;4.67;;;15.70;99.90;;;;;;5029269;28;20492;-78
2023/06/28 01:44:19;;;;;;;10.13;4.70;;;15.70;99.90;;;;;;5022533;28;20420;-78
2023/06/28 01:46:46;;;;;;;9.43;5.00;;;15.60;99.90;;;;;;5037580;28;20405;-78
2023/06/28 01:49:12;;;;;;;8.73;4.37;;;15.60;99.90;;;;;;5029051;28;20603;-78
2023/06/28 01:51:39;;;;;;;9.70;4.80;;;15.60;99.90;;;;;;5008291;28;20426;-78
2023/06/28 01:54:05;;;;;;;8.50;4.65;;;15.60;99.90;;;;;;5036307;28;20740;-78
2023/06/28 01:56:31;;;;;;;11.88;4.93;;;15.70;99.90;;;;;;5020206;28;20435;-78
2023/06/28 01:58:57;;;;;;;9.75;4.65;;;15.70;99.90;;;;;;5020532;28;20410;-78
2023/06/28 02:01:23;;;;;;;9.18;4.70;;;15.60;99.90;;;;;;5011492;28;20876;-78
2023/06/28 02:03:48;;;;;;;10.85;5.30;;;15.60;99.90;;;;;;5011576;28;20406;-78
2023/06/28 02:06:15;;;;;;;10.57;4.80;;;15.60;99.90;;;;;;5006449;28;20800;-78
2023/06/28 02:08:41;;;;;;;8.43;5.00;;;15.60;99.90;;;;;;5012343;28;20441;-78
2023/06/28 02:11:07;;;;;;;7.83;4.57;;;15.50;99.90;;;;;;5027751;28;21678;-78
2023/06/28 02:13:32;;;;;;;8.35;5.10;;;15.50;99.90;;;;;;5011936;28;20788;-78
2023/06/28 02:15:58;;;;;;;9.00;4.90;;;15.50;99.90;;;;;;5012487;28;20477;-78
2023/06/28 02:18:26;;;;;;;8.53;4.90;;;15.50;99.90;;;;;;5029994;28;20408;-78
2023/06/28 02:20:52;;;;;;;5.95;4.15;;;15.50;99.90;;;;;;5037295;28;20773;-78
2023/06/28 02:23:19;;;;;;;10.25;4.93;;;15.50;99.90;;;;;;5017580;28;20403;-78
2023/06/28 02:25:44;;;;;;;7.72;4.55;;;15.50;99.90;;;;;;5036098;28;20420;-78
2023/06/28 02:28:10;;;;;;;7.73;4.20;;;15.50;99.90;;;;;;5012586;28;20421;-78
2023/06/28 02:30:35;;;;;;;9.13;4.37;;;15.50;99.90;;;;;;5011380;28;20430;-78
2023/06/28 02:33:01;;;;;;;10.13;4.40;;;15.50;99.90;;;;;;5006299;28;20995;-78
2023/06/28 02:35:27;;;;;;;8.20;4.30;;;15.60;99.90;;;;;;5011533;28;20431;-78
2023/06/28 02:37:52;;;;;;;8.18;4.78;;;15.60;99.90;;;;;;5032942;28;20423;-78
2023/06/28 02:40:18;;;;;;;8.77;4.63;;;15.60;99.90;;;;;;5010388;28;20496;-78
2023/06/28 02:42:44;;;;;;;9.43;5.28;;;15.60;99.90;;;;;;5000067;28;20903;-78
2023/06/28 02:45:10;;;;;;;8.18;5.03;;;15.60;99.90;;;;;;5022725;28;20405;-78
2023/06/28 02:47:37;;;;;;;9.30;5.20;;;15.60;99.90;;;;;;5017662;28;20907;-79
2023/06/28 02:50:05;;;;;;;9.70;4.80;;;15.60;99.90;;;;;;4995668;28;20906;-78
2023/06/28 02:52:31;;;;;;;9.18;4.80;;;15.60;99.90;;;;;;5009842;28;20489;-78
2023/06/28 02:54:57;;;;;;;8.55;4.65;;;15.60;99.90;;;;;;5015218;28;20906;-78
2023/06/28 02:57:23;;;;;;;7.20;4.20;;;15.70;99.90;;;;;;5005989;28;20471;-78
2023/06/28 02:59:48;;;;;;;8.85;4.30;;;15.60;99.90;;;;;;5025056;28;20403;-78
2023/06/28 03:02:17;;;;;;;7.90;4.65;;;15.70;99.90;;;;;;5022325;28;20473;-78
2023/06/28 03:04:43;;;;;;;9.70;4.63;;;15.70;99.90;;;;;;5019037;28;20417;-78
2023/06/28 03:07:16;;;;;;;9.77;4.93;;;15.70;99.90;;;;;;5034219;28;20886;-78
2023/06/28 03:09:42;;;;;;;9.30;4.60;;;15.60;99.90;;;;;;5011373;28;20430;-78
2023/06/28 03:12:08;;;;;;;9.73;4.85;;;15.70;99.90;;;;;;5028255;28;20461;-78
2023/06/28 03:14:34;;;;;;;8.25;4.80;;;15.70;99.90;;;;;;5005620;28;20403;-78
2023/06/28 03:17:00;;;;;;;8.97;5.00;;;15.70;99.90;;;;;;5009736;28;20506;-78
2023/06/28 03:19:25;;;;;;;10.07;5.00;;;15.70;99.90;;;;;;5017691;28;20833;-79
2023/06/28 03:21:51;;;;;;;11.03;5.20;;;15.70;99.90;;;;;;5023081;28;20409;-79
2023/06/28 03:24:16;;;;;;;10.10;5.30;;;15.80;99.90;;;;;;5018889;28;20442;-79
2023/06/28 03:26:42;;;;;;;10.18;5.35;;;15.80;99.90;;;;;;5032713;28;20414;-78
2023/06/28 03:29:08;;;;;;;9.55;5.30;;;15.80;99.90;;;;;;5030857;28;20473;-79
2023/06/28 03:31:33;;;;;;;10.73;5.40;;;15.70;99.90;;;;;;5020092;28;20576;-79
2023/06/28 03:33:59;;;;;;;9.57;5.60;;;15.80;99.90;;;;;;5019525;28;20411;-79
2023/06/28 03:36:27;;;;;;;11.07;5.20;;;15.80;99.90;;;;;;5015321;28;20508;-80
2023/06/28 03:38:53;;;;;;;8.18;5.10;;;15.80;99.90;;;;;;5015202;28;20417;-80
2023/06/28 03:41:19;;;;;;;11.13;5.80;;;15.80;99.90;;;;;;5008476;28;20427;-80
2023/06/28 03:43:44;;;;;;;10.20;5.07;;;15.80;99.90;;;;;;5032663;28;20968;-80
2023/06/28 03:46:11;;;;;;;9.80;4.90;;;15.80;99.90;;;;;;5026098;28;20427;-79
2023/06/28 03:48:36;;;;;;;10.23;5.00;;;15.80;99.90;;;;;;5015711;28;20446;-79
2023/06/28 03:51:02;;;;;;;11.15;4.57;;;15.80;99.90;;;;;;5031856;28;20415;-80
2023/06/28 03:53:27;;;;;;;9.48;4.65;;;15.80;99.90;;;;;;5037296;28;20464;-80
2023/06/28 03:55:53;;;;;;;8.20;4.60;;;15.80;99.90;;;;;;5039827;28;20435;-79
2023/06/28 03:58:19;;;;;;;9.10;4.37;;;16.20;99.90;;;;;;5039505;28;20411;-80
2023/06/28 04:00:44;;;;;;;8.07;4.27;;;15.80;99.90;;;;;;5021844;28;20404;-80
2023/06/28 04:03:10;;;;;;;6.97;4.57;;;15.80;99.90;;;;;;5013342;28;20445;-80
2023/06/28 04:05:36;;;;;;;9.65;4.50;;;15.80;99.90;;;;;;5017456;28;20443;-81
2023/06/28 04:08:02;;;;;;;8.30;4.50;;;15.80;99.90;;;;;;5016309;28;20418;-80
2023/06/28 04:10:28;;;;;;;9.55;4.93;;;15.80;99.90;;;;;;5043434;28;20420;-80
2023/06/28 04:12:53;;;;;;;9.18;4.55;;;15.80;99.90;;;;;;5021661;28;20453;-80
2023/06/28 04:15:19;;;;;;;9.17;4.70;;;15.80;99.90;;;;;;5037703;28;20463;-80
2023/06/28 04:17:45;;;;;;;7.78;4.63;;;15.80;99.90;;;;;;5009183;28;20414;-80
2023/06/28 04:20:11;;;;;;;8.90;5.00;;;15.90;99.90;;;;;;5033317;28;20767;-80
2023/06/28 04:22:37;;;;;;;9.03;5.00;;;15.90;99.90;;;;;;5034388;28;20407;-80
2023/06/28 04:25:03;;;;;;;8.80;5.10;;;15.90;99.90;;;;;;5033167;28;20437;-82
2023/06/28 04:27:29;;;;;;;8.93;5.25;;;15.90;99.90;;;;;;5015549;28;20407;-81
2023/06/28 04:29:54;;;;;;;8.70;5.40;;;15.90;99.90;;;;;;5014516;28;20419;-80
2023/06/28 04:32:22;;;;;;;9.07;4.90;;;15.90;99.90;;;;;;5014936;28;20446;-80
2023/06/28 04:34:49;;;;;;;8.53;4.83;;;15.90;99.90;;;;;;5032386;28;20458;-80
2023/06/28 04:37:15;;;;;;;9.50;5.43;;;15.90;99.90;;;;;;5038595;28;20435;-80
2023/06/28 04:39:41;;;;;;;10.77;5.47;;;15.90;99.90;;;;;;4997582;28;20965;-82
2023/06/28 04:42:06;;;;;;;10.32;5.78;;;15.90;99.90;;;;;;5010363;28;20470;-80
2023/06/28 04:44:36;;;;;;;10.18;5.60;;;15.90;99.90;;;;;;5031002;28;20399;-81
2023/06/28 04:47:03;;;;;;;10.20;5.65;;;15.90;99.90;;;;;;5014531;28;20415;-81
2023/06/28 04:49:29;;;;;;;9.43;5.60;;;15.90;99.90;;;;;;5016578;28;20415;-82
2023/06/28 04:51:56;;;;;;;8.77;5.28;;;16.30;99.90;;;;;;5013531;28;20418;-82
2023/06/28 04:54:22;;;;;;;9.90;5.53;;;16.00;99.90;;;;;;5009382;28;20405;-83
2023/06/28 04:56:47;;;;;;;9.07;5.35;;;16.00;99.90;;;;;;5035726;28;20435;-79
2023/06/28 04:59:13;;;;;;;8.93;4.88;;;16.00;99.90;;;;;;5015473;28;20459;-81
2023/06/28 05:01:41;;;;;;;11.10;5.30;;;16.00;99.90;;;;;;5015547;28;20939;-82
2023/06/28 05:04:07;;;;;;;9.57;4.80;;;16.00;99.90;;;;;;5011744;28;20971;-81
2023/06/28 05:06:35;;;;;;;8.30;4.47;;;16.10;99.90;;;;;;5011179;28;20411;-81
2023/06/28 05:09:02;;;;;;;9.88;4.43;;;16.10;99.90;;;;;;5032734;28;20403;-81
2023/06/28 05:11:27;;;;;;;9.50;4.30;;;16.10;99.90;;;;;;5012388;28;20415;-82
2023/06/28 05:13:53;;;;;;;7.88;4.25;;;16.00;99.90;;;;;;5011792;28;20407;-83
2023/06/28 05:16:18;;;;;;;8.93;4.28;;;16.10;99.90;;;;;;5021856;28;20504;-82
2023/06/28 05:18:44;;;;;;;9.93;4.50;;;16.10;99.90;;;;;;5038512;28;20426;-82
2023/06/28 05:21:10;;;;;;;10.73;4.27;;;16.10;99.90;;;;;;5023451;28;21085;-80
2023/06/28 05:23:36;;;;;;;8.20;4.20;;;16.10;99.90;;;;;;5029226;28;20779;-81
2023/06/28 05:26:01;;;;;;;7.93;4.32;;;16.10;99.90;;;;;;5032241;28;20403;-80
2023/06/28 05:28:27;;;;;;;9.47;4.17;;;16.10;99.90;;;;;;5018583;28;20843;-81
2023/06/28 05:30:52;;;;;;;8.70;4.18;;;16.20;99.90;;;;;;5025897;28;20445;-81
2023/06/28 05:33:18;;;;;;;8.07;4.00;;;16.20;99.90;;;;;;5002786;28;20430;-81
2023/06/28 05:35:43;;;;;;;7.97;4.00;;;16.20;99.90;;;;;;5015657;28;20429;-82
2023/06/28 05:38:09;;;;;;;9.63;4.50;;;16.30;99.90;;;;;;5042453;28;20436;-80
2023/06/28 05:40:35;;;;;;;8.95;4.50;;;16.30;99.90;;;;;;5039829;28;20898;-81
2023/06/28 05:43:01;;;;;;;7.53;4.30;;;16.30;99.90;;;;;;5010087;28;20792;-82
2023/06/28 05:45:27;;;;;;;9.27;4.40;;;16.30;99.90;;;;;;5032201;28;20434;-82
2023/06/28 05:47:54;;;;;;;7.50;4.32;;;16.30;99.90;;;;;;5011256;28;20438;-84
2023/06/28 05:50:23;;;;;;;10.30;4.63;;;16.30;99.90;;;;;;5027027;28;20424;-80
2023/06/28 05:52:49;;;;;;;9.32;4.78;;;16.90;99.90;;;;;;5026460;28;20461;-81
2023/06/28 05:55:15;;;;;;;9.48;5.07;;;16.80;99.90;;;;;;5028867;28;20434;-83
2023/06/28 05:57:41;;;;;;;8.27;4.63;;;16.30;99.90;;;;;;5020866;28;20992;-82
2023/06/28 06:00:09;;;;;;;9.53;5.07;;;16.30;99.90;;;;;;5031904;28;20485;-81
2023/06/28 06:02:35;;;;;;;9.05;5.20;;;16.30;99.90;;;;;;5025644;28;20509;-81
2023/06/28 06:05:02;;;;;;;10.02;5.20;;;16.30;99.90;;;;;;5013778;28;20423;-83
2023/06/28 06:07:28;;;;;;;9.27;5.25;;;16.30;99.90;;;;;;5019137;28;20417;-82
2023/06/28 06:09:54;;;;;;;11.20;5.90;;;16.30;99.90;;;;;;5015611;28;20438;-82
2023/06/28 06:12:21;;;;;;;10.27;5.60;;;16.30;99.90;;;;;;5044345;22;20471;-62
2023/06/28 06:14:50;;;;;;;10.63;5.95;;;16.30;99.90;;;;;;5084711;28;20382;-62
2023/06/28 06:17:17;;;;;;;10.40;5.55;;;16.30;99.90;;;;;;5083457;28;20554;-64
2023/06/28 06:19:42;;;;;;;11.15;6.40;;;16.30;99.90;;;;;;5099895;28;20814;-63
2023/06/28 06:22:08;;;;;;;11.63;6.27;;;16.30;99.90;;;;;;5096866;28;20489;-64
2023/06/28 06:24:33;;;;;;;11.07;5.70;;;16.30;99.90;;;;;;5104118;28;20408;-62
2023/06/28 06:26:59;;;;;;;11.68;6.68;;;16.40;99.90;;;;;;5094653;28;20412;-63
2023/06/28 06:29:25;;;;;;;11.90;6.50;;;16.40;99.90;;;;;;5096424;28;20438;-64
2023/06/28 06:31:50;;;;;;;11.32;6.43;;;16.40;99.90;;;;;;5100286;28;20885;-63
2023/06/28 06:34:16;;;;;;;10.73;6.50;;;16.40;99.90;;;;;;5105608;28;20388;-66
2023/06/28 06:36:41;;;;;;;12.40;6.73;;;16.40;99.90;;;;;;5096309;28;20504;-65
2023/06/28 06:39:07;;;;;;;11.60;6.80;;;16.60;99.90;;;;;;5093057;28;20749;-64
2023/06/28 06:41:33;;;;;;;12.00;6.45;;;16.50;99.90;;;;;;5101911;28;20420;-64
2023/06/28 06:43:58;;;;;;;14.10;6.90;;;16.50;99.90;;;;;;5096270;28;20409;-65
2023/06/28 06:46:24;;;;;;;10.70;6.70;;;16.50;99.90;;;;;;5093664;28;20953;-64
2023/06/28 06:48:50;;;;;;;12.23;6.70;;;16.60;99.90;;;;;;5096469;28;20903;-63
2023/06/28 06:51:16;;;;;;;11.40;6.73;;;16.60;99.90;;;;;;5093619;28;20408;-62
2023/06/28 06:53:42;;;;;;;14.13;7.17;;;16.50;99.90;;;;;;5081964;28;20479;-63
2023/06/28 06:56:07;;;;;;;9.80;6.83;;;16.50;99.90;;;;;;5098922;28;20489;-64
2023/06/28 06:58:33;;;;;;;15.40;7.23;;;16.40;99.90;;;;;;5083953;28;20400;-65
2023/06/28 07:00:59;;;;;;;12.35;7.03;;;16.50;99.90;;;;;;5095322;28;20404;-65
2023/06/28 07:03:24;;;;;;;13.13;7.18;;;16.50;99.90;;;;;;5102424;28;20480;-63
2023/06/28 07:05:50;;;;;;;13.70;7.50;;;16.40;99.90;;;;;;5099884;28;20402;-63
2023/06/28 07:08:16;;;;;;;12.05;7.10;;;16.40;99.90;;;;;;5112382;28;20402;-63
2023/06/28 07:10:42;;;;;;;12.98;7.35;;;16.40;99.90;;;;;;5087425;28;20412;-63
2023/06/28 07:13:09;;;;;;;12.47;7.30;;;16.50;99.90;;;;;;5098605;28;20767;-63
2023/06/28 07:15:34;;;;;;;10.73;7.00;;;16.40;99.90;;;;;;5103449;28;20766;-63
2023/06/28 07:18:00;;;;;;;13.23;6.80;;;16.50;99.90;;;;;;5106431;28;20446;-63
2023/06/28 07:20:25;;;;;;;14.10;7.63;;;16.50;99.90;;;;;;5086533;28;20424;-64
2023/06/28 07:22:51;;;;;;;13.37;7.00;;;16.50;99.90;;;;;;5104103;28;20404;-65
2023/06/28 07:25:17;;;;;;;13.30;6.93;;;16.50;99.90;;;;;;5092569;28;20980;-63
2023/06/28 07:27:43;;;;;;;13.40;7.30;;;16.50;99.90;;;;;;5103887;28;21042;-63
2023/06/28 07:30:09;;;;;;;13.20;7.23;;;16.50;99.90;;;;;;5101365;28;20392;-63
2023/06/28 07:32:35;;;;;;;13.47;6.97;;;16.60;99.90;;;;;;5079851;28;20779;-63
2023/06/28 07:35:00;;;;;;;13.13;7.13;;;16.60;99.90;;;;;;5100431;28;20412;-63
2023/06/28 07:37:26;;;;;;;13.13;7.20;;;16.60;99.90;;;;;;5085531;28;20420;-63
2023/06/28 07:39:52;;;;;;;11.43;6.95;;;16.60;99.90;;;;;;5067972;28;20472;-62
2023/06/28 07:42:19;;;;;;;12.90;6.97;;;16.50;99.90;;;;;;5092568;28;21123;-62
2023/06/28 07:44:45;;;;;;;12.57;7.05;;;16.50;99.90;;;;;;5092063;28;20390;-62
2023/06/28 07:47:11;;;;;;;14.45;7.18;;;16.50;99.90;;;;;;5092951;28;20816;-64
2023/06/28 07:49:36;;;;;;;13.18;7.20;;;16.40;99.90;;;;;;5077814;28;20416;-64
2023/06/28 07:52:02;;;;;;;12.15;6.75;;;16.50;99.90;;;;;;5096074;28;20481;-64
2023/06/28 07:54:28;;;;;;;12.30;7.22;;;16.50;99.90;;;;;;5097092;28;20412;-62
2023/06/28 07:56:53;;;;;;;13.50;7.07;;;16.00;99.90;;;;;;5093514;28;20472;-62
2023/06/28 07:59:20;;;;;;;11.70;7.20;;;16.60;99.90;;;;;;5094125;28;20460;-63
2023/06/28 08:01:46;;;;;;;15.20;7.40;;;16.60;99.90;;;;;;5076565;28;20802;-62
2023/06/28 08:04:12;;;;;;;12.70;7.60;;;16.80;99.90;;;;;;5074322;28;20410;-63
2023/06/28 08:06:37;;;;;;;12.33;7.77;;;16.80;99.90;;;;;;5100726;28;20885;-62
2023/06/28 08:09:03;;;;;;;14.23;7.90;;;16.80;99.90;;;;;;5092627;28;20451;-63
2023/06/28 08:11:29;;;;;;;13.48;7.63;;;16.80;99.90;;;;;;5091189;28;20980;-65
2023/06/28 08:13:54;;;;;;;14.63;8.00;;;16.70;99.90;;;;;;5098156;28;20533;-63
2023/06/28 08:16:20;;;;;;;12.32;7.45;;;16.80;99.90;;;;;;5092447;28;20416;-62
2023/06/28 08:18:46;;;;;;;11.13;6.82;;;16.80;99.90;;;;;;5098886;28;20429;-62
2023/06/28 08:21:11;;;;;;;11.50;7.73;;;16.80;99.90;;;;;;5099680;28;20526;-63
2023/06/28 08:23:37;;;;;;;13.37;7.67;;;16.90;99.90;;;;;;5095235;28;20640;-65
2023/06/28 08:26:03;;;;;;;14.40;7.47;;;16.90;99.90;;;;;;5091299;28;20835;-62
2023/06/28 08:28:28;;;;;;;14.65;8.00;;;16.90;99.90;;;;;;5095476;28;20891;-62
2023/06/28 08:30:54;;;;;;;12.80;7.85;;;16.90;99.90;;;;;;5090805;28;20402;-62
2023/06/28 08:33:21;;;;;;;14.88;7.90;;;16.90;99.90;;;;;;5094803;28;20398;-63
2023/06/28 08:35:47;;;;;;;14.52;8.55;;;16.90;99.90;;;;;;5093816;28;20903;-62
2023/06/28 08:38:12;;;;;;;14.98;8.27;;;17.00;99.90;;;;;;5100872;28;20489;-63
2023/06/28 08:40:38;;;;;;;16.45;8.48;;;17.00;99.90;;;;;;5094112;28;20402;-62
2023/06/28 08:43:04;;;;;;;15.83;8.70;;;17.00;99.90;;;;;;5094586;28;20930;-65
2023/06/28 08:45:33;;;;;;;14.40;8.45;;;17.10;99.90;;;;;;5086969;28;20400;-63
2023/06/28 08:48:00;;;;;;;12.93;8.13;;;17.10;99.90;;;;;;5077331;28;20547;-63
2023/06/28 08:50:26;;;;;;;15.25;8.45;;;17.10;99.90;;;;;;5095969;28;20883;-62
2023/06/28 08:52:52;;;;;;;14.65;8.82;;;17.10;99.90;;;;;;5099675;28;20451;-62
2023/06/28 08:55:21;;;;;;;16.35;9.80;;;17.10;99.90;;;;;;5077026;28;20566;-62
2023/06/28 08:57:47;;;;;;;15.95;9.63;;;17.10;99.90;;;;;;5101071;28;20489;-62
2023/06/28 09:00:15;;;;;;;15.30;9.13;;;17.10;99.90;;;;;;5104865;28;20396;-63
2023/06/28 09:02:44;;;;;;;15.65;9.65;;;17.10;99.90;;;;;;5102302;28;20475;-66
2023/06/28 09:05:10;;;;;;;16.10;9.50;;;17.10;99.90;;;;;;5103322;28;20479;-63
2023/06/28 09:07:41;;;;;;;16.05;9.70;;;17.10;99.90;;;;;;5102786;28;20408;-62
2023/06/28 09:10:10;;;;;;;18.08;10.20;;;17.20;99.90;;;;;;5099933;28;20624;-62
2023/06/28 09:12:38;;;;;;;16.27;9.60;;;17.10;99.90;;;;;;5096880;28;20405;-63
2023/06/28 09:15:04;;;;;;;16.58;9.25;;;17.10;99.90;;;;;;5103436;28;20445;-62
2023/06/28 09:17:30;;;;;;;15.20;9.98;;;17.20;99.90;;;;;;5103222;28;20406;-63
2023/06/28 09:20:18;;;;;;;17.88;10.40;;;17.10;99.90;;;;;;5103277;28;20442;-62
2023/06/28 09:22:57;;;;;;;18.30;9.98;;;17.10;99.90;;;;;;5095352;28;20399;-66
2023/06/28 09:25:24;;;;;;;15.95;9.68;;;17.40;99.90;;;;;;5087565;28;20427;-66
2023/06/28 09:27:50;;;;;;;17.25;9.90;;;17.20;99.90;;;;;;5088943;28;20445;-64
2023/06/28 09:30:19;;;;;;;16.75;9.88;;;17.20;99.90;;;;;;5083299;28;20892;-62
2023/06/28 09:32:50;;;;;;;17.48;10.30;;;17.20;99.90;;;;;;5071758;28;20416;-64
2023/06/28 09:35:16;;;;;;;17.30;10.82;;;17.30;99.90;;;;;;5102842;28;20416;-64
2023/06/28 09:37:42;;;;;;;20.88;10.60;;;17.30;99.90;;;;;;5091558;28;20388;-64
2023/06/28 09:40:08;;;;;;;18.80;10.97;;;17.20;99.90;;;;;;5097686;28;20390;-63
2023/06/28 09:42:50;;;;;;;21.08;11.02;;;17.20;99.90;;;;;;5090988;28;20400;-63
2023/06/28 09:45:27;;;;;;;16.47;10.93;;;17.10;99.90;;;;;;5088647;28;20614;-63
2023/06/28 09:47:58;;;;;;;19.13;11.30;;;17.10;99.90;;;;;;5099352;28;20507;-63
2023/06/28 09:50:47;;;;;;;19.00;11.43;;;17.20;99.90;;;;;;5091316;28;20436;-65
2023/06/28 09:53:21;;;;;;;19.05;11.55;;;17.10;99.90;;;;;;5057477;28;20419;-66
2023/06/28 09:55:51;;;;;;;15.55;11.23;;;17.10;99.90;;;;;;5072720;28;20435;-67
2023/06/28 09:58:19;;;;;;;15.82;11.57;;;17.40;99.90;;;;;;5091418;28;20421;-62
2023/06/28 10:00:47;;;;;;;19.45;12.27;;;17.10;99.90;;;;;;5092207;28;20541;-62
2023/06/28 10:03:15;;;;;;;16.95;11.52;;;17.10;99.90;;;;;;5090286;28;20837;-63
2023/06/28 10:05:42;;;;;;;16.20;11.50;;;17.10;99.90;;;;;;5086382;28;20390;-63
2023/06/28 10:08:10;;;;;;;16.88;12.02;;;17.10;99.90;;;;;;5092282;28;20459;-67
2023/06/28 10:10:38;;;;;;;19.08;12.27;;;17.20;99.90;;;;;;5097120;28;21065;-66
2023/06/28 10:13:13;;;;;;;17.95;12.30;;;17.20;99.90;;;;;;5092047;28;20770;-63
2023/06/28 10:16:07;;;;;;;16.75;12.60;;;17.20;99.90;;;;;;5078107;28;20763;-63
2023/06/28 10:18:33;;;;;;;15.70;12.05;;;17.20;99.90;;;;;;5072379;28;20397;-64
2023/06/28 10:21:06;;;;;;;14.40;11.35;;;17.20;99.90;;;;;;5102199;28;20392;-67
2023/06/28 10:23:35;;;;;;;14.32;11.82;;;17.30;99.90;;;;;;5090566;28;20434;-67
2023/06/28 10:26:04;;;;;;;15.60;12.45;;;17.50;99.90;;;;;;5093755;28;20412;-66
2023/06/28 10:28:34;;;;;;;15.43;12.40;;;17.40;99.90;;;;;;5091184;28;21215;-63
2023/06/28 10:31:02;;;;;;;15.15;12.45;;;17.50;99.90;;;;;;5087560;28;20413;-64
2023/06/28 10:33:31;;;;;;;15.52;11.95;;;17.60;99.90;;;;;;5088904;28;20394;-63
2023/06/28 10:36:00;;;;;;;15.82;12.02;;;17.70;99.90;;;;;;5092923;28;20408;-67
2023/06/28 10:38:33;;;;;;;15.07;12.20;;;17.70;99.90;;;;;;5089418;28;21570;-65
2023/06/28 10:41:00;;;;;;;15.65;12.27;;;17.70;99.90;;;;;;5106892;28;20412;-63
2023/06/28 10:43:27;;;;;;;16.15;12.30;;;17.70;99.90;;;;;;5095039;28;20388;-64
2023/06/28 10:45:53;;;;;;;15.32;12.07;;;17.80;99.90;;;;;;5102193;28;20420;-65
2023/06/28 10:48:23;;;;;;;15.30;12.20;;;17.80;99.90;;;;;;5087254;28;20778;-65
2023/06/28 10:50:50;;;;;;;13.85;11.80;;;17.90;99.90;;;;;;5074769;28;20487;-67
2023/06/28 10:53:27;;;;;;;15.73;13.02;;;17.80;99.90;;;;;;5096399;28;20824;-64
2023/06/28 10:56:12;;;;;;;16.00;14.20;;;17.90;99.90;;;;;;5098304;28;20441;-67
2023/06/28 10:58:40;;;;;;;15.82;13.27;;;17.80;99.90;;;;;;5071540;28;20948;-63
2023/06/28 11:01:10;;;;;;;17.02;13.75;;;17.80;99.90;;;;;;5087181;28;20668;-68
2023/06/28 11:03:43;;;;;;;17.30;13.83;;;17.90;99.90;;;;;;5094393;28;20445;-68
2023/06/28 11:06:11;;;;;;;17.05;14.52;;;17.80;99.90;;;;;;5072638;28;20423;-64
2023/06/28 11:08:41;;;;;;;19.27;14.77;;;17.80;99.90;;;;;;5090504;28;20475;-64
2023/06/28 11:11:09;;;;;;;18.37;14.77;;;17.80;99.90;;;;;;5093437;28;20406;-64
2023/06/28 11:13:48;;;;;;;17.20;15.07;;;17.70;99.90;;;;;;5098891;28;20427;-65
2023/06/28 11:16:20;;;;;;;18.33;15.43;;;17.80;99.90;;;;;;5073850;28;20491;-64
2023/06/28 11:18:47;;;;;;;19.75;16.35;;;17.80;99.90;;;;;;5097634;28;20944;-64
2023/06/28 11:21:18;;;;;;;20.23;15.32;;;17.80;99.90;;;;;;5095468;28;20410;-69
2023/06/28 11:23:47;;;;;;;17.85;15.50;;;17.80;99.90;;;;;;5072957;28;20526;-67
2023/06/28 11:26:18;;;;;;;18.52;15.80;;;17.90;99.90;;;;;;5092392;28;20513;-66
2023/06/28 11:28:54;;;;;;;20.83;16.77;;;17.90;99.90;;;;;;5079649;28;20435;-64
2023/06/28 11:31:24;;;;;;;19.52;16.02;;;18.00;99.90;;;;;;5092120;28;21006;-66
2023/06/28 11:33:54;;;;;;;20.08;16.75;;;18.10;99.90;;;;;;5096817;28;20476;-64
2023/06/28 11:36:24;;;;;;;20.43;16.03;;;18.00;99.90;;;;;;5092359;28;20429;-67
2023/06/28 11:38:52;;;;;;;20.57;16.43;;;18.00;99.90;;;;;;5090159;28;20401;-64
2023/06/28 11:41:18;;;;;;;21.60;17.27;;;18.00;99.90;;;;;;5080125;28;20404;-66
2023/06/28 11:43:44;;;;;;;23.17;17.37;;;18.30;99.90;;;;;;5095904;28;20681;-64
2023/06/28 11:46:19;;;;;;;20.95;17.40;;;18.00;99.90;;;;;;5092817;28;20417;-64
2023/06/28 11:48:50;;;;;;;22.73;16.80;;;18.00;99.90;;;;;;5099194;28;20575;-67
2023/06/28 11:51:16;;;;;;;20.87;16.27;;;18.10;99.90;;;;;;5101470;28;20401;-64
2023/06/28 11:53:51;;;;;;;21.02;16.75;;;18.10;99.90;;;;;;5091762;28;20818;-64
2023/06/28 11:56:17;;;;;;;21.92;16.95;;;18.20;99.90;;;;;;5088146;28;20408;-66
2023/06/28 11:58:42;;;;;;;23.00;16.95;;;18.30;99.90;;;;;;5091206;28;20540;-69
2023/06/28 12:01:19;;;;;;;27.00;18.60;;;18.30;99.90;;;;;;5090593;28;20903;-65
2023/06/28 12:03:45;;;;;;;27.23;18.10;;;18.40;99.90;;;;;;5082857;28;20400;-67
2023/06/28 12:06:11;;;;;;;26.08;16.48;;;18.40;99.90;;;;;;5073652;28;20990;-65
2023/06/28 12:08:38;;;;;;;22.50;16.17;;;18.50;99.90;;;;;;5094777;28;20419;-65
2023/06/28 12:11:17;;;;;;;29.60;18.20;;;18.50;99.90;;;;;;5093669;28;20485;-69
2023/06/28 12:13:45;;;;;;;28.15;17.10;;;18.60;99.90;;;;;;5091614;28;20396;-68
2023/06/28 12:16:16;;;;;;;24.70;17.15;;;18.70;99.90;;;;;;5076477;28;20779;-66
2023/06/28 12:18:57;;;;;;;25.80;17.67;;;18.80;99.90;;;;;;5094483;28;20475;-65
2023/06/28 12:21:27;;;;;;;27.77;18.52;;;18.90;99.90;;;;;;5095202;28;20389;-68
2023/06/28 12:23:53;;;;;;;25.88;17.55;;;18.90;99.90;;;;;;5100046;28;20395;-64
2023/06/28 12:26:22;;;;;;;28.27;16.83;;;19.00;99.90;;;;;;5076030;28;20408;-64
2023/06/28 12:28:49;;;;;;;26.48;17.65;;;19.00;99.90;;;;;;5092946;28;20416;-64
2023/06/28 12:31:15;;;;;;;26.50;17.23;;;19.00;99.90;;;;;;5078722;28;20483;-65
2023/06/28 12:33:42;;;;;;;27.27;17.83;;;19.00;99.90;;;;;;5083700;28;20409;-67
2023/06/28 12:36:18;;;;;;;25.13;18.25;;;19.00;99.90;;;;;;5093937;28;20428;-64
2023/06/28 12:38:49;;;;;;;25.40;17.77;;;19.00;99.90;;;;;;5090307;28;20413;-65